Time;durP1;ratioP1;P1;durP2;ratioP2;P2;SDS_P1;SDS_P2;PMS_P1;PMS_P2;Temp;Humidity;BMP_temperature;BMP_pressure;BME280_temperature;BME280_humidity;BME280_pressure;Samples;Min_cycle;Max_cycle;Signal;HPM_P1;HPM_P2
2022/04/15 00:02:53;;;;;;;7.97;4.78;;;17.10;78.60;;;;;;10152677;28;20024;-64
2022/04/15 00:07:43;;;;;;;6.18;4.00;;;17.10;78.90;;;;;;10163754;28;20258;-64
2022/04/15 00:12:34;;;;;;;5.35;3.63;;;17.00;79.10;;;;;;10168632;28;20094;-65
2022/04/15 00:17:25;;;;;;;8.80;4.22;;;17.00;79.40;;;;;;10171879;28;20082;-63
2022/04/15 00:22:15;;;;;;;6.68;4.90;;;17.00;79.30;;;;;;10182165;28;20051;-63
2022/04/15 00:27:06;;;;;;;11.05;4.30;;;17.00;79.30;;;;;;10195319;28;20039;-63
2022/04/15 00:31:57;;;;;;;7.60;5.05;;;16.90;79.30;;;;;;10202673;28;20129;-64
2022/04/15 00:36:47;;;;;;;8.77;4.85;;;16.80;79.70;;;;;;10150632;28;20028;-63
2022/04/15 00:41:43;;;;;;;8.60;4.18;;;16.80;79.90;;;;;;10140247;28;20029;-64
2022/04/15 00:46:33;;;;;;;7.13;3.78;;;16.70;80.10;;;;;;10178466;28;20350;-63
2022/04/15 00:51:24;;;;;;;4.60;4.10;;;16.70;80.10;;;;;;10167722;28;20213;-64
2022/04/15 00:56:15;;;;;;;9.43;5.25;;;16.70;80.20;;;;;;10153565;28;20035;-63
2022/04/15 01:01:07;;;;;;;6.53;3.90;;;16.50;80.20;;;;;;10167011;28;20112;-64
2022/04/15 01:05:59;;;;;;;5.75;3.75;;;16.50;80.70;;;;;;10156583;28;20391;-63
2022/04/15 01:10:52;;;;;;;6.78;4.43;;;16.50;80.80;;;;;;10152420;28;20563;-64
2022/04/15 01:15:44;;;;;;;7.38;4.32;;;16.40;80.90;;;;;;10182836;28;20032;-62
2022/04/15 01:20:36;;;;;;;7.65;4.20;;;16.30;80.90;;;;;;10192904;28;20055;-63
2022/04/15 01:25:27;;;;;;;7.22;3.85;;;16.20;81.00;;;;;;10193455;28;20024;-63
2022/04/15 01:30:20;;;;;;;6.75;4.07;;;16.10;81.40;;;;;;10202437;28;20123;-63
2022/04/15 01:35:12;;;;;;;5.70;3.63;;;16.20;81.40;;;;;;10188838;28;20331;-64
2022/04/15 01:40:08;;;;;;;7.22;3.67;;;16.10;81.40;;;;;;10162929;28;20020;-63
2022/04/15 01:44:59;;;;;;;9.35;3.63;;;16.00;81.50;;;;;;10149253;28;20039;-62
2022/04/15 01:49:50;;;;;;;6.63;3.88;;;16.00;81.60;;;;;;10179384;28;20461;-63
2022/04/15 01:54:40;;;;;;;5.88;3.53;;;16.10;81.50;;;;;;10174534;28;20044;-63
2022/04/15 01:59:31;;;;;;;6.78;3.67;;;16.20;81.50;;;;;;10188945;28;20024;-63
2022/04/15 02:04:23;;;;;;;5.55;3.63;;;16.20;81.40;;;;;;10147676;28;20741;-63
2022/04/15 02:09:14;;;;;;;6.70;4.07;;;16.00;81.70;;;;;;10160717;28;20050;-63
2022/04/15 02:14:04;;;;;;;6.38;4.15;;;16.00;81.90;;;;;;10169273;28;20578;-63
2022/04/15 02:18:55;;;;;;;6.15;3.40;;;16.10;81.90;;;;;;10178283;28;20614;-62
2022/04/15 02:23:46;;;;;;;5.75;3.70;;;16.10;82.10;;;;;;10181835;28;20567;-63
2022/04/15 02:28:36;;;;;;;7.75;4.25;;;16.10;81.90;;;;;;10184747;28;20109;-62
2022/04/15 02:33:27;;;;;;;6.18;3.70;;;16.00;82.00;;;;;;10143519;28;20040;-62
2022/04/15 02:38:18;;;;;;;7.43;4.05;;;16.00;82.20;;;;;;10144938;28;20028;-63
2022/04/15 02:43:10;;;;;;;6.65;4.10;;;15.90;82.40;;;;;;10139842;28;20088;-64
2022/04/15 02:48:01;;;;;;;8.35;4.10;;;15.70;82.80;;;;;;10166897;28;20025;-63
2022/04/15 02:52:52;;;;;;;7.03;4.47;;;15.70;82.90;;;;;;10181951;28;20044;-62
2022/04/15 02:57:42;;;;;;;7.22;4.55;;;15.60;82.90;;;;;;10145147;28;20031;-63
2022/04/15 03:02:34;;;;;;;10.68;4.38;;;15.60;83.00;;;;;;10173088;28;20232;-63
2022/04/15 03:07:24;;;;;;;7.15;4.78;;;15.60;83.20;;;;;;10156891;28;20032;-63
2022/04/15 03:12:15;;;;;;;6.90;3.72;;;15.60;83.30;;;;;;10169737;28;20461;-62
2022/04/15 03:17:06;;;;;;;5.68;3.90;;;15.50;83.60;;;;;;10173539;28;20036;-63
2022/04/15 03:21:56;;;;;;;5.95;3.53;;;15.50;83.80;;;;;;10155190;28;20032;-62
2022/04/15 03:26:47;;;;;;;9.05;3.65;;;15.40;84.00;;;;;;10172806;28;20024;-63
2022/04/15 03:31:38;;;;;;;6.63;4.15;;;15.40;84.30;;;;;;10172939;28;20044;-62
2022/04/15 03:36:28;;;;;;;6.25;4.10;;;15.40;84.40;;;;;;10172145;28;20081;-62
2022/04/15 03:41:22;;;;;;;7.95;4.70;;;15.30;84.60;;;;;;10172651;28;20139;-62
2022/04/15 03:46:13;;;;;;;6.72;4.18;;;15.20;85.10;;;;;;10175320;28;20044;-63
2022/04/15 03:51:03;;;;;;;5.75;4.25;;;15.20;85.30;;;;;;10166302;28;20220;-62
2022/04/15 03:55:54;;;;;;;7.90;3.97;;;15.10;85.20;;;;;;10165188;28;20063;-63
2022/04/15 04:00:45;;;;;;;7.57;4.93;;;15.00;85.30;;;;;;10151828;28;20021;-62
2022/04/15 04:05:36;;;;;;;7.47;3.90;;;14.90;85.40;;;;;;10153044;28;20028;-62
2022/04/15 04:10:26;;;;;;;8.98;5.15;;;14.90;85.40;;;;;;10167541;28;20033;-62
2022/04/15 04:15:18;;;;;;;6.30;3.90;;;14.90;85.40;;;;;;10181163;28;20067;-63
2022/04/15 04:20:10;;;;;;;7.10;3.60;;;14.90;85.60;;;;;;10197094;28;20032;-62
2022/04/15 04:25:01;;;;;;;6.32;4.07;;;14.90;85.70;;;;;;10186095;28;20035;-64
2022/04/15 04:29:52;;;;;;;7.18;4.70;;;14.70;85.90;;;;;;10194191;28;20048;-63
2022/04/15 04:34:42;;;;;;;8.13;4.18;;;14.60;86.20;;;;;;10193629;28;20036;-63
2022/04/15 04:39:33;;;;;;;14.73;6.03;;;14.80;86.00;;;;;;10143458;28;20028;-62
2022/04/15 04:44:24;;;;;;;7.25;5.03;;;14.80;86.10;;;;;;10145599;28;20031;-64
2022/04/15 04:49:15;;;;;;;9.63;4.22;;;14.80;86.10;;;;;;10185278;28;20032;-63
2022/04/15 04:54:06;;;;;;;7.00;4.13;;;14.80;86.10;;;;;;10176038;28;20032;-62
2022/04/15 04:58:57;;;;;;;10.52;4.43;;;14.80;86.30;;;;;;10183558;28;20034;-62
2022/04/15 05:03:47;;;;;;;5.50;4.05;;;14.80;86.40;;;;;;10157747;28;20113;-61
2022/04/15 05:08:38;;;;;;;8.00;4.32;;;14.70;86.60;;;;;;10168077;28;20078;-63
2022/04/15 05:13:28;;;;;;;7.15;4.63;;;14.70;86.70;;;;;;10173655;28;20044;-62
2022/04/15 05:18:19;;;;;;;7.97;4.70;;;14.50;86.80;;;;;;10180972;28;20072;-62
2022/04/15 05:23:11;;;;;;;8.68;4.72;;;14.60;87.00;;;;;;10193415;28;20074;-62
2022/04/15 05:28:02;;;;;;;7.20;4.35;;;14.60;87.00;;;;;;10180294;28;20058;-62
2022/04/15 05:32:53;;;;;;;7.05;4.78;;;14.50;87.30;;;;;;10202474;28;20256;-62
2022/04/15 05:37:43;;;;;;;8.40;4.25;;;14.50;87.10;;;;;;10154066;28;20017;-63
2022/04/15 05:42:34;;;;;;;8.20;4.65;;;14.40;87.70;;;;;;10163761;28;20046;-62
2022/04/15 05:47:25;;;;;;;7.28;4.93;;;14.50;87.60;;;;;;10176634;28;20019;-62
2022/04/15 05:52:15;;;;;;;9.15;4.57;;;14.60;87.50;;;;;;10182619;28;20092;-63
2022/04/15 05:57:06;;;;;;;6.60;5.05;;;14.60;87.30;;;;;;10179284;28;20024;-62
2022/04/15 06:01:57;;;;;;;9.25;5.57;;;14.70;87.10;;;;;;10172540;28;20028;-63
2022/04/15 06:06:47;;;;;;;8.27;5.10;;;14.50;87.20;;;;;;10165701;28;20351;-62
2022/04/15 06:11:39;;;;;;;6.55;4.38;;;14.60;87.30;;;;;;10168794;28;20047;-63
2022/04/15 06:16:33;;;;;;;7.47;4.70;;;14.60;87.30;;;;;;10170764;28;20678;-62
2022/04/15 06:21:24;;;;;;;9.38;4.82;;;14.70;87.10;;;;;;10167333;28;20059;-61
2022/04/15 06:26:14;;;;;;;8.70;5.40;;;14.70;87.20;;;;;;10171180;28;20490;-63
2022/04/15 06:31:05;;;;;;;8.70;6.57;;;14.70;87.10;;;;;;10173618;28;20351;-62
2022/04/15 06:35:55;;;;;;;9.02;5.05;;;14.70;87.50;;;;;;10169170;28;20055;-62
2022/04/15 06:40:46;;;;;;;12.57;5.97;;;14.90;87.20;;;;;;10153693;28;20032;-63
2022/04/15 06:45:37;;;;;;;9.13;5.63;;;15.00;87.20;;;;;;10151810;28;20025;-62
2022/04/15 06:50:28;;;;;;;9.93;5.07;;;15.00;87.30;;;;;;10140202;28;20032;-62
2022/04/15 06:55:19;;;;;;;8.10;6.18;;;15.10;87.30;;;;;;10144728;28;20045;-61
2022/04/15 07:00:13;;;;;;;9.23;5.15;;;15.20;87.10;;;;;;10142468;28;20154;-61
2022/04/15 07:05:06;;;;;;;9.88;5.80;;;15.40;86.80;;;;;;10120907;28;20115;-62
2022/04/15 07:09:57;;;;;;;10.60;6.32;;;15.60;86.80;;;;;;10171481;28;20217;-63
2022/04/15 07:14:48;;;;;;;11.60;6.85;;;15.60;86.50;;;;;;10172110;28;20529;-62
2022/04/15 07:19:39;;;;;;;11.90;7.03;;;15.70;86.60;;;;;;10171787;28;20032;-62
2022/04/15 07:24:30;;;;;;;9.60;7.13;;;15.70;86.50;;;;;;10171128;28;20255;-63
2022/04/15 07:29:21;;;;;;;10.77;6.32;;;16.00;86.20;;;;;;10173529;28;20533;-61
2022/04/15 07:34:15;;;;;;;9.40;6.32;;;16.10;85.90;;;;;;10171974;28;20036;-64
2022/04/15 07:39:08;;;;;;;13.48;7.35;;;16.40;85.40;;;;;;10143033;28;20024;-62
2022/04/15 07:43:59;;;;;;;11.48;7.05;;;16.50;85.20;;;;;;10172927;28;20193;-62
2022/04/15 07:48:50;;;;;;;10.23;6.72;;;16.50;85.30;;;;;;10175191;28;20265;-61
2022/04/15 07:53:40;;;;;;;11.30;6.93;;;16.50;85.30;;;;;;10159651;28;20046;-61
2022/04/15 07:58:31;;;;;;;11.20;7.20;;;16.50;85.20;;;;;;10151504;28;20036;-60
2022/04/15 08:03:22;;;;;;;12.48;8.40;;;16.50;85.30;;;;;;10153511;28;20040;-62
2022/04/15 08:08:13;;;;;;;10.07;7.25;;;16.60;84.90;;;;;;10153488;28;20020;-60
2022/04/15 08:13:04;;;;;;;12.00;8.43;;;16.60;84.90;;;;;;10163912;28;20036;-62
2022/04/15 08:17:54;;;;;;;17.95;9.57;;;16.70;84.90;;;;;;10181192;28;20027;-63
2022/04/15 08:22:45;;;;;;;12.18;9.02;;;16.80;84.60;;;;;;10184039;28;20035;-66
2022/04/15 08:27:36;;;;;;;15.90;9.02;;;16.90;84.20;;;;;;10155534;28;20403;-62
2022/04/15 08:32:32;;;;;;;12.00;8.23;;;17.10;83.80;;;;;;10142184;28;20063;-63
2022/04/15 08:37:23;;;;;;;14.48;9.85;;;17.20;83.40;;;;;;10159408;28;20557;-65
2022/04/15 08:42:14;;;;;;;16.80;8.98;;;17.30;83.20;;;;;;10147063;28;20032;-62
2022/04/15 08:47:07;;;;;;;15.75;9.65;;;17.30;83.10;;;;;;10166339;28;20087;-63
2022/04/15 08:51:58;;;;;;;15.13;9.57;;;17.60;82.60;;;;;;10166928;28;20085;-65
2022/04/15 08:56:49;;;;;;;15.40;9.18;;;17.60;82.40;;;;;;10149753;28;20081;-64
2022/04/15 09:01:40;;;;;;;14.27;9.70;;;17.80;82.10;;;;;;10154830;28;20059;-62
2022/04/15 09:06:31;;;;;;;12.93;8.73;;;17.80;82.00;;;;;;10181367;28;20059;-64
2022/04/15 09:11:22;;;;;;;12.93;8.52;;;17.90;82.00;;;;;;10172377;28;20455;-60
2022/04/15 09:16:17;;;;;;;14.52;9.45;;;18.10;81.60;;;;;;10175588;28;20036;-60
2022/04/15 09:21:35;;;;;;;13.27;8.52;;;18.20;81.10;;;;;;10167644;28;20096;-61
2022/04/15 09:26:26;;;;;;;13.27;8.73;;;18.30;80.50;;;;;;10169238;28;20164;-61
2022/04/15 09:31:18;;;;;;;13.30;7.75;;;18.60;80.50;;;;;;10174265;28;20052;-61
2022/04/15 09:36:08;;;;;;;11.65;8.18;;;18.70;80.00;;;;;;10177268;28;20129;-60
2022/04/15 09:40:59;;;;;;;11.52;8.75;;;19.00;79.90;;;;;;10151319;28;20487;-60
2022/04/15 09:45:50;;;;;;;12.82;8.77;;;19.20;79.30;;;;;;10166036;28;20162;-57
2022/04/15 09:50:42;;;;;;;13.93;9.00;;;19.10;79.10;;;;;;10162279;28;20125;-55
2022/04/15 09:55:35;;;;;;;16.10;9.57;;;19.10;78.80;;;;;;10166283;28;20040;-60
2022/04/15 10:00:26;;;;;;;13.15;8.48;;;19.00;78.70;;;;;;10162106;28;20028;-60
2022/04/15 10:05:20;;;;;;;15.95;9.90;;;19.10;78.30;;;;;;10162877;28;20074;-59
2022/04/15 10:10:11;;;;;;;13.45;8.85;;;19.10;77.70;;;;;;10168640;28;20502;-59
2022/04/15 10:15:02;;;;;;;14.80;9.63;;;19.10;77.30;;;;;;10193435;28;20047;-59
2022/04/15 10:19:53;;;;;;;14.15;8.88;;;19.20;77.30;;;;;;10189563;28;20082;-61
2022/04/15 10:24:44;;;;;;;13.10;9.15;;;19.30;76.90;;;;;;10192123;28;20523;-60
2022/04/15 10:29:35;;;;;;;13.43;8.10;;;19.40;76.20;;;;;;10186861;28;20079;-58
2022/04/15 10:34:26;;;;;;;11.82;7.85;;;19.40;75.80;;;;;;10163652;28;20040;-58
2022/04/15 10:39:22;;;;;;;10.77;8.13;;;19.50;75.40;;;;;;10159033;28;20043;-59
2022/04/15 10:44:27;;;;;;;13.90;8.20;;;19.60;75.20;;;;;;10171297;28;20093;-60
2022/04/15 10:49:24;;;;;;;10.25;7.75;;;19.80;73.60;;;;;;10177452;28;20027;-58
2022/04/15 10:54:35;;;;;;;10.98;7.10;;;19.80;73.90;;;;;;10187446;28;20028;-59
2022/04/15 11:04:50;;;;;;;11.23;7.18;;;20.20;73.30;;;;;;10157511;28;20046;-60
2022/04/15 11:09:41;;;;;;;12.05;6.85;;;20.20;72.70;;;;;;10152679;28;20027;-58
2022/04/15 11:14:34;;;;;;;9.00;6.75;;;20.20;72.70;;;;;;10175275;28;20044;-59
2022/04/15 11:19:26;;;;;;;12.90;7.35;;;20.20;72.20;;;;;;10180403;28;20028;-58
2022/04/15 11:24:22;;;;;;;12.10;7.72;;;20.30;72.00;;;;;;10165138;28;20061;-60
2022/04/15 11:29:14;;;;;;;11.30;7.05;;;20.30;71.50;;;;;;10189478;28;20124;-59
2022/04/15 11:34:15;;;;;;;7.63;5.63;;;20.60;71.30;;;;;;10168013;28;20067;-61
2022/04/15 11:39:09;;;;;;;13.02;6.47;;;20.80;70.90;;;;;;10143398;28;20038;-63
2022/04/15 11:44:02;;;;;;;9.35;5.43;;;20.80;70.70;;;;;;10150231;28;20060;-58
2022/04/15 11:48:55;;;;;;;8.52;6.25;;;20.80;70.40;;;;;;10186341;28;20024;-61
2022/04/15 11:53:46;;;;;;;9.82;6.10;;;20.90;69.90;;;;;;10159430;28;20240;-61
2022/04/15 11:58:38;;;;;;;8.43;5.65;;;20.90;69.50;;;;;;10142840;28;20039;-59
2022/04/15 12:03:29;;;;;;;6.85;5.22;;;21.10;69.10;;;;;;10159333;28;20035;-60
2022/04/15 12:08:21;;;;;;;7.43;5.13;;;21.60;68.50;;;;;;10158842;28;20062;-60
2022/04/15 12:13:12;;;;;;;8.68;6.05;;;21.80;67.60;;;;;;10167121;28;20071;-59
2022/04/15 12:18:04;;;;;;;7.78;5.35;;;21.40;67.50;;;;;;10169488;28;20016;-59
2022/04/15 12:22:57;;;;;;;7.53;5.20;;;21.50;67.30;;;;;;10172151;28;20093;-63
2022/04/15 12:27:48;;;;;;;6.43;4.47;;;21.90;66.30;;;;;;10171557;28;20029;-61
2022/04/15 12:32:39;;;;;;;8.27;5.82;;;22.10;66.30;;;;;;10157352;28;20051;-62
2022/04/15 12:37:43;;;;;;;5.13;4.45;;;22.80;65.60;;;;;;10168159;27;20027;-60
2022/04/15 12:42:36;;;;;;;9.77;5.45;;;23.00;64.10;;;;;;10175830;28;20402;-59
2022/04/15 12:47:27;;;;;;;6.60;4.60;;;22.80;64.80;;;;;;10170165;28;20032;-61
2022/04/15 12:52:19;;;;;;;7.65;5.05;;;23.40;64.40;;;;;;10166673;28;20410;-59
2022/04/15 12:57:17;;;;;;;9.23;5.97;;;23.80;63.80;;;;;;10159648;28;20076;-59
2022/04/15 13:02:07;;;;;;;6.85;5.25;;;24.20;63.40;;;;;;10171935;28;20028;-63
2022/04/15 13:06:58;;;;;;;7.07;4.00;;;24.30;63.00;;;;;;10176829;28;20109;-62
2022/04/15 13:11:49;;;;;;;5.47;3.85;;;24.30;62.30;;;;;;10151134;28;20041;-62
2022/04/15 13:16:39;;;;;;;8.20;4.07;;;24.90;61.20;;;;;;10185147;28;20651;-58
2022/04/15 13:21:30;;;;;;;5.32;4.65;;;25.70;59.60;;;;;;10158952;28;20081;-62
2022/04/15 13:26:21;;;;;;;4.95;3.78;;;25.90;57.30;;;;;;10174032;28;20263;-57
2022/04/15 13:31:11;;;;;;;4.43;3.63;;;24.60;57.90;;;;;;10177026;28;20126;-62
2022/04/15 13:36:02;;;;;;;7.22;4.20;;;24.60;57.60;;;;;;10168333;28;20490;-61
2022/04/15 13:40:53;;;;;;;6.95;4.55;;;27.20;54.90;;;;;;10174204;28;20494;-59
2022/04/15 13:45:44;;;;;;;6.45;4.38;;;27.70;52.40;;;;;;10180888;28;20034;-60
2022/04/15 13:50:35;;;;;;;6.75;4.80;;;28.10;52.00;;;;;;10180138;28;20443;-59
2022/04/15 14:00:34;;;;;;;5.47;4.90;;;28.00;50.50;;;;;;10155881;28;20070;-57
2022/04/15 14:05:25;;;;;;;5.28;3.53;;;29.00;49.50;;;;;;10160138;28;20078;-58
2022/04/15 14:10:16;;;;;;;7.65;3.63;;;30.20;47.80;;;;;;10167956;28;20043;-58
2022/04/15 14:15:07;;;;;;;6.68;4.80;;;31.10;46.70;;;;;;10155471;28;20020;-59
2022/04/15 14:19:58;;;;;;;5.47;4.03;;;29.60;47.10;;;;;;10171110;28;20080;-60
2022/04/15 14:24:49;;;;;;;4.00;3.20;;;30.40;46.60;;;;;;10174800;28;20096;-61
2022/04/15 14:29:40;;;;;;;4.93;3.70;;;31.30;45.50;;;;;;10150597;28;20540;-62
2022/04/15 14:34:31;;;;;;;5.80;4.18;;;30.40;45.60;;;;;;10155749;28;20040;-61
2022/04/15 14:39:22;;;;;;;7.03;4.18;;;28.40;46.20;;;;;;10161500;28;20012;-59
2022/04/15 14:44:12;;;;;;;5.40;3.70;;;27.90;45.90;;;;;;10167479;28;20032;-60
2022/04/15 14:49:03;;;;;;;5.32;4.30;;;27.80;45.90;;;;;;10150350;28;20029;-59
2022/04/15 14:53:54;;;;;;;3.92;3.47;;;28.00;45.10;;;;;;10160239;28;20494;-58
2022/04/15 14:58:45;;;;;;;6.72;4.97;;;28.30;44.40;;;;;;10167225;28;20127;-59
2022/04/15 15:03:36;;;;;;;5.03;4.07;;;28.00;44.60;;;;;;10167638;28;20121;-57
2022/04/15 15:08:27;;;;;;;5.00;3.53;;;26.90;45.40;;;;;;10163481;28;20035;-63
2022/04/15 15:13:18;;;;;;;4.85;4.03;;;26.60;45.40;;;;;;10160187;28;20471;-59
2022/04/15 15:18:09;;;;;;;4.38;3.63;;;27.40;44.50;;;;;;10178172;28;20132;-60
2022/04/15 15:23:00;;;;;;;4.40;3.47;;;28.00;43.90;;;;;;10167934;28;20063;-61
2022/04/15 15:32:59;;;;;;;4.95;2.97;;;27.30;44.80;;;;;;10160879;28;20050;-63
2022/04/15 15:37:50;;;;;;;5.18;3.30;;;29.00;43.50;;;;;;10155169;28;20031;-59
2022/04/15 15:42:41;;;;;;;4.47;3.00;;;29.50;42.80;;;;;;10154732;28;20026;-57
2022/04/15 15:47:31;;;;;;;4.63;3.33;;;29.10;43.20;;;;;;10158080;28;20048;-60
2022/04/15 15:52:22;;;;;;;4.25;3.20;;;28.10;43.60;;;;;;10157974;28;20645;-57
2022/04/15 15:57:13;;;;;;;4.80;3.05;;;27.00;45.30;;;;;;10155963;28;20024;-62
2022/04/15 16:02:05;;;;;;;4.15;3.55;;;27.80;43.80;;;;;;10157684;28;20523;-62
2022/04/15 16:06:55;;;;;;;5.80;3.05;;;28.20;43.20;;;;;;10151479;28;20093;-58
2022/04/15 16:11:46;;;;;;;3.85;3.35;;;27.30;43.70;;;;;;10159434;28;20085;-58
2022/04/15 16:16:37;;;;;;;4.55;4.15;;;25.90;45.20;;;;;;10194077;28;20281;-59
2022/04/15 16:21:32;;;;;;;4.65;3.40;;;25.00;46.00;;;;;;10193347;28;20027;-58
2022/04/15 16:26:24;;;;;;;7.70;5.20;;;24.80;46.10;;;;;;10176790;28;20397;-61
2022/04/15 16:31:15;;;;;;;4.60;3.75;;;25.10;45.70;;;;;;10205421;28;20597;-56
2022/04/15 16:36:05;;;;;;;4.55;3.40;;;24.90;45.70;;;;;;10150393;28;20130;-59
2022/04/15 16:40:58;;;;;;;4.28;2.33;;;24.20;46.80;;;;;;10175266;28;20040;-57
2022/04/15 16:45:49;;;;;;;4.53;3.72;;;23.90;47.30;;;;;;10173867;28;20016;-58
2022/04/15 16:50:39;;;;;;;5.25;2.92;;;23.60;47.50;;;;;;10173719;28;20576;-55
2022/04/15 17:00:39;;;;;;;3.38;3.03;;;23.50;47.80;;;;;;10178708;28;20039;-57
2022/04/15 17:05:31;;;;;;;4.47;2.65;;;23.30;48.10;;;;;;10176312;28;20035;-56
2022/04/15 17:10:21;;;;;;;3.17;2.88;;;23.10;48.50;;;;;;10165601;28;20020;-62
2022/04/15 17:15:12;;;;;;;3.33;2.33;;;22.90;48.90;;;;;;10178542;28;20474;-61
2022/04/15 17:20:06;;;;;;;3.00;2.63;;;22.90;49.00;;;;;;10185422;28;20031;-59
2022/04/15 17:24:56;;;;;;;4.72;2.08;;;22.50;49.50;;;;;;10169797;28;20031;-58
2022/04/15 17:29:47;;;;;;;4.05;2.38;;;22.50;49.70;;;;;;10188165;28;20057;-57
2022/04/15 17:34:38;;;;;;;3.15;2.17;;;22.30;50.00;;;;;;10180622;28;20036;-57
2022/04/15 17:39:28;;;;;;;6.55;2.72;;;22.10;50.10;;;;;;10155834;28;20262;-56
2022/04/15 17:44:19;;;;;;;5.25;1.95;;;21.90;50.60;;;;;;10173504;28;20032;-59
2022/04/15 17:49:10;;;;;;;5.22;2.50;;;21.70;50.80;;;;;;10172015;28;20038;-59
2022/04/15 17:54:00;;;;;;;2.42;2.05;;;21.80;50.60;;;;;;10152541;28;20604;-59
2022/04/15 17:58:52;;;;;;;3.30;2.03;;;21.60;50.90;;;;;;10175326;28;20092;-60
2022/04/15 18:03:43;;;;;;;3.40;1.75;;;21.30;51.30;;;;;;10175124;28;20024;-62
2022/04/15 18:08:33;;;;;;;2.63;2.15;;;21.10;51.60;;;;;;10144503;28;20031;-67
2022/04/15 18:13:26;;;;;;;5.53;2.20;;;21.00;51.60;;;;;;10172848;28;20599;-59
2022/04/15 18:18:16;;;;;;;2.72;1.98;;;20.90;51.70;;;;;;10171685;28;20031;-64
2022/04/15 18:23:09;;;;;;;2.92;1.83;;;20.80;51.80;;;;;;10175179;28;20028;-62
2022/04/15 18:27:59;;;;;;;3.63;2.42;;;20.60;51.90;;;;;;10169779;28;20056;-61
2022/04/15 18:32:50;;;;;;;2.88;1.60;;;20.50;52.20;;;;;;10166927;28;20514;-65
2022/04/15 18:37:41;;;;;;;3.05;1.60;;;20.30;52.30;;;;;;10160454;28;20020;-64
2022/04/15 18:42:33;;;;;;;2.40;1.50;;;20.20;52.20;;;;;;10159391;28;20032;-59
2022/04/15 18:47:24;;;;;;;3.25;1.63;;;20.20;52.40;;;;;;10166220;28;20027;-62
2022/04/15 18:57:24;;;;;;;2.00;1.33;;;19.90;52.70;;;;;;10159841;28;20062;-61
2022/04/15 19:02:15;;;;;;;3.20;1.50;;;19.80;52.70;;;;;;10166510;28;20402;-57
2022/04/15 19:07:06;;;;;;;3.95;1.45;;;19.80;52.80;;;;;;10139052;28;20032;-62
2022/04/15 19:11:57;;;;;;;1.83;1.50;;;19.70;52.70;;;;;;10167029;28;20032;-59
2022/04/15 19:16:49;;;;;;;1.75;1.65;;;19.60;52.80;;;;;;10182777;28;20166;-64
2022/04/15 19:21:41;;;;;;;2.60;1.48;;;19.50;53.00;;;;;;10184810;28;20054;-61
2022/04/15 19:26:32;;;;;;;2.85;1.48;;;19.30;53.30;;;;;;10184524;28;20672;-60
2022/04/15 19:31:23;;;;;;;4.18;1.50;;;19.30;53.40;;;;;;10168721;28;20051;-61
2022/04/15 19:36:14;;;;;;;2.30;1.40;;;19.10;53.70;;;;;;10155336;28;20035;-60
2022/04/15 19:41:05;;;;;;;1.95;1.42;;;19.10;53.90;;;;;;10158225;28;20029;-64
2022/04/15 19:45:56;;;;;;;1.98;1.60;;;18.90;54.10;;;;;;10135722;28;20062;-65
2022/04/15 19:50:47;;;;;;;2.72;1.30;;;18.80;54.40;;;;;;10175359;28;20505;-65
2022/04/15 19:55:38;;;;;;;2.42;1.67;;;18.70;54.50;;;;;;10166423;28;20166;-64
2022/04/15 20:05:38;;;;;;;2.50;1.42;;;18.50;54.80;;;;;;10162528;28;20084;-61
2022/04/15 20:10:29;;;;;;;3.03;1.60;;;18.40;55.00;;;;;;10166458;28;20081;-62
2022/04/15 20:15:19;;;;;;;4.03;2.30;;;18.40;55.10;;;;;;10174204;28;20093;-63
2022/04/15 20:20:11;;;;;;;2.92;2.15;;;18.30;55.10;;;;;;10176970;28;20176;-63
2022/04/15 20:25:02;;;;;;;3.80;2.60;;;18.20;55.30;;;;;;10190283;28;20398;-60
2022/04/15 20:29:53;;;;;;;3.60;2.45;;;18.20;55.40;;;;;;10176878;28;20553;-61
2022/04/15 20:34:43;;;;;;;5.78;2.55;;;18.10;55.80;;;;;;10144131;28;20113;-65
2022/04/15 20:39:34;;;;;;;3.63;2.05;;;17.90;56.30;;;;;;10125705;28;20060;-67
2022/04/15 20:44:25;;;;;;;4.63;2.22;;;17.90;56.70;;;;;;10157971;28;20098;-64
2022/04/15 20:54:25;;;;;;;3.17;2.30;;;17.60;57.60;;;;;;10179056;28;20264;-65
2022/04/15 20:59:16;;;;;;;2.95;2.20;;;17.40;58.00;;;;;;10152984;28;20688;-65
2022/04/15 21:04:07;;;;;;;3.47;2.20;;;17.40;58.10;;;;;;10137391;28;20120;-60
2022/04/15 21:08:59;;;;;;;3.00;2.20;;;17.30;58.90;;;;;;10171230;28;20028;-61
2022/04/15 21:13:50;;;;;;;2.92;2.28;;;17.10;59.40;;;;;;10181068;28;20033;-65
2022/04/15 21:18:40;;;;;;;6.65;1.92;;;16.90;60.00;;;;;;10181214;28;20467;-63
2022/04/15 21:23:32;;;;;;;2.53;1.92;;;16.80;60.60;;;;;;10179179;28;20024;-67
2022/04/15 21:28:23;;;;;;;2.28;1.80;;;16.60;61.40;;;;;;10180994;28;20063;-61
2022/04/15 21:33:14;;;;;;;3.45;2.17;;;16.50;61.90;;;;;;10164510;28;20510;-66
2022/04/15 21:38:05;;;;;;;3.72;1.50;;;16.30;62.40;;;;;;10177238;28;20525;-67
2022/04/15 21:42:55;;;;;;;4.35;2.05;;;16.30;62.20;;;;;;10172289;28;20023;-65
2022/04/15 21:47:46;;;;;;;2.88;1.90;;;16.30;62.40;;;;;;10174020;28;20036;-69
2022/04/15 21:52:43;;;;;;;3.67;1.55;;;16.10;62.40;;;;;;10164049;28;20040;-65
2022/04/15 21:57:35;;;;;;;3.35;1.58;;;16.00;63.00;;;;;;10168937;28;20041;-68
2022/04/15 22:02:25;;;;;;;3.30;2.00;;;15.90;62.90;;;;;;10156055;28;20024;-66
2022/04/15 22:07:17;;;;;;;2.63;1.77;;;15.80;63.20;;;;;;10163869;28;20390;-65
2022/04/15 22:12:10;;;;;;;3.85;1.75;;;15.70;63.50;;;;;;10172917;28;20035;-64
2022/04/15 22:17:01;;;;;;;3.10;1.55;;;15.60;63.80;;;;;;10184044;28;20028;-66
2022/04/15 22:21:51;;;;;;;1.88;1.20;;;15.50;63.90;;;;;;10192118;28;20028;-61
2022/04/15 22:26:42;;;;;;;1.75;1.27;;;15.40;64.40;;;;;;10193609;28;20043;-66
2022/04/15 22:31:33;;;;;;;2.72;1.80;;;15.30;64.50;;;;;;10197038;28;20545;-66
2022/04/15 22:36:24;;;;;;;1.75;1.58;;;15.20;64.70;;;;;;10150202;28;20077;-63
2022/04/15 22:41:15;;;;;;;2.10;1.52;;;15.10;64.90;;;;;;10161490;28;20016;-59
2022/04/15 22:46:06;;;;;;;1.55;1.20;;;15.00;65.00;;;;;;10170748;28;20029;-64
2022/04/15 22:50:58;;;;;;;2.35;1.20;;;14.90;65.20;;;;;;10177732;28;20032;-60
2022/04/15 23:01:00;;;;;;;2.92;1.17;;;14.40;66.80;;;;;;10147487;28;20097;-64
2022/04/15 23:05:52;;;;;;;4.43;1.45;;;14.30;67.30;;;;;;10159005;28;20119;-63
2022/04/15 23:10:43;;;;;;;2.15;1.60;;;14.20;67.80;;;;;;10151824;28;20029;-61
2022/04/15 23:15:34;;;;;;;2.75;1.55;;;14.00;68.50;;;;;;10179995;28;20036;-62
2022/04/15 23:20:26;;;;;;;3.78;1.60;;;13.90;68.80;;;;;;10195219;28;20020;-60
2022/04/15 23:25:17;;;;;;;1.63;1.27;;;13.80;69.20;;;;;;10201047;28;20035;-62
2022/04/15 23:30:08;;;;;;;1.75;1.42;;;13.70;69.40;;;;;;10196297;28;20580;-60
2022/04/15 23:34:59;;;;;;;3.80;1.60;;;13.60;69.80;;;;;;10148203;28;20185;-62
2022/04/15 23:39:50;;;;;;;2.33;2.00;;;13.70;69.70;;;;;;10172185;28;20020;-60
2022/04/15 23:44:40;;;;;;;2.13;1.60;;;13.60;70.00;;;;;;10163595;28;20044;-61
2022/04/15 23:49:31;;;;;;;3.10;1.67;;;13.50;70.20;;;;;;10170754;28;20028;-60
2022/04/15 23:54:22;;;;;;;2.78;1.50;;;13.40;70.60;;;;;;10176706;28;20467;-60
2022/04/15 23:59:16;;;;;;;5.20;1.58;;;13.50;70.70;;;;;;10142710;28;20295;-60
